sensor_id;sensor_type;location;lat;lon;timestamp;P1;durP1;ratioP1;P2;durP2;ratioP2
323;SDS011;149;51.094;17.002;2022-08-11T00:01:11;4.40;;;3.20;;
323;SDS011;149;51.094;17.002;2022-08-11T00:03:41;5.13;;;2.73;;
323;SDS011;149;51.094;17.002;2022-08-11T00:06:30;3.73;;;3.27;;
323;SDS011;149;51.094;17.002;2022-08-11T00:08:59;2.80;;;2.60;;
323;SDS011;149;51.094;17.002;2022-08-11T00:11:33;3.90;;;3.27;;
323;SDS011;149;51.094;17.002;2022-08-11T00:14:20;4.00;;;3.67;;
323;SDS011;149;51.094;17.002;2022-08-11T00:17:05;5.33;;;2.93;;
323;SDS011;149;51.094;17.002;2022-08-11T00:19:43;3.63;;;3.33;;
323;SDS011;149;51.094;17.002;2022-08-11T00:22:32;6.00;;;3.60;;
323;SDS011;149;51.094;17.002;2022-08-11T00:25:07;4.07;;;3.50;;
323;SDS011;149;51.094;17.002;2022-08-11T00:27:37;3.90;;;2.80;;
323;SDS011;149;51.094;17.002;2022-08-11T00:30:06;4.60;;;4.00;;
323;SDS011;149;51.094;17.002;2022-08-11T00:32:36;3.47;;;3.17;;
323;SDS011;149;51.094;17.002;2022-08-11T00:35:05;3.53;;;2.83;;
323;SDS011;149;51.094;17.002;2022-08-11T00:37:56;4.03;;;3.40;;
323;SDS011;149;51.094;17.002;2022-08-11T00:40:41;5.77;;;4.47;;
323;SDS011;149;51.094;17.002;2022-08-11T00:43:37;3.83;;;3.53;;
323;SDS011;149;51.094;17.002;2022-08-11T00:49:01;5.83;;;4.10;;
323;SDS011;149;51.094;17.002;2022-08-11T00:55:14;3.93;;;3.63;;
323;SDS011;149;51.094;17.002;2022-08-11T00:58:13;3.87;;;3.53;;
323;SDS011;149;51.094;17.002;2022-08-11T01:01:19;4.27;;;3.87;;
323;SDS011;149;51.094;17.002;2022-08-11T01:18:52;4.50;;;3.67;;
323;SDS011;149;51.094;17.002;2022-08-11T01:27:12;4.63;;;3.40;;
323;SDS011;149;51.094;17.002;2022-08-11T01:30:14;4.90;;;3.40;;
323;SDS011;149;51.094;17.002;2022-08-11T01:41:57;4.53;;;3.60;;
323;SDS011;149;51.094;17.002;2022-08-11T01:45:05;5.33;;;3.83;;
323;SDS011;149;51.094;17.002;2022-08-11T01:47:46;4.53;;;3.40;;
323;SDS011;149;51.094;17.002;2022-08-11T01:53:44;5.00;;;3.70;;
323;SDS011;149;51.094;17.002;2022-08-11T01:56:31;3.90;;;3.60;;
323;SDS011;149;51.094;17.002;2022-08-11T02:07:25;4.77;;;4.27;;
323;SDS011;149;51.094;17.002;2022-08-11T02:10:28;5.17;;;3.77;;
323;SDS011;149;51.094;17.002;2022-08-11T02:13:35;4.93;;;4.43;;
323;SDS011;149;51.094;17.002;2022-08-11T02:24:59;8.80;;;3.87;;
323;SDS011;149;51.094;17.002;2022-08-11T02:27:47;4.27;;;3.87;;
323;SDS011;149;51.094;17.002;2022-08-11T02:30:23;4.40;;;4.00;;
323;SDS011;149;51.094;17.002;2022-08-11T02:38:37;5.13;;;4.63;;
323;SDS011;149;51.094;17.002;2022-08-11T02:41:20;4.97;;;4.30;;
323;SDS011;149;51.094;17.002;2022-08-11T02:47:44;6.87;;;4.27;;
323;SDS011;149;51.094;17.002;2022-08-11T02:50:40;5.17;;;4.67;;
323;SDS011;149;51.094;17.002;2022-08-11T02:56:24;4.37;;;4.00;;
323;SDS011;149;51.094;17.002;2022-08-11T02:59:05;5.78;;;4.35;;
323;SDS011;149;51.094;17.002;2022-08-11T03:02:02;3.73;;;3.43;;
323;SDS011;149;51.094;17.002;2022-08-11T03:10:16;4.70;;;4.20;;
323;SDS011;149;51.094;17.002;2022-08-11T03:13:20;5.65;;;5.15;;
323;SDS011;149;51.094;17.002;2022-08-11T03:16:18;10.27;;;6.87;;
323;SDS011;149;51.094;17.002;2022-08-11T03:22:21;7.45;;;5.18;;
323;SDS011;149;51.094;17.002;2022-08-11T03:24:55;6.88;;;4.75;;
323;SDS011;149;51.094;17.002;2022-08-11T03:39:00;6.13;;;5.07;;
323;SDS011;149;51.094;17.002;2022-08-11T03:41:43;6.22;;;5.03;;
323;SDS011;149;51.094;17.002;2022-08-11T03:47:38;7.47;;;4.80;;
323;SDS011;149;51.094;17.002;2022-08-11T03:53:12;4.80;;;4.35;;
323;SDS011;149;51.094;17.002;2022-08-11T04:04:35;7.45;;;5.38;;
323;SDS011;149;51.094;17.002;2022-08-11T04:25:14;6.38;;;4.88;;
323;SDS011;149;51.094;17.002;2022-08-11T04:43:12;6.17;;;5.67;;
323;SDS011;149;51.094;17.002;2022-08-11T04:46:04;8.33;;;6.50;;
323;SDS011;149;51.094;17.002;2022-08-11T05:08:06;17.53;;;5.70;;
323;SDS011;149;51.094;17.002;2022-08-11T05:13:43;6.17;;;5.20;;
323;SDS011;149;51.094;17.002;2022-08-11T05:16:45;8.20;;;5.47;;
323;SDS011;149;51.094;17.002;2022-08-11T05:19:35;4.83;;;4.30;;
323;SDS011;149;51.094;17.002;2022-08-11T05:22:23;7.43;;;5.40;;
323;SDS011;149;51.094;17.002;2022-08-11T05:25:17;9.30;;;5.80;;
323;SDS011;149;51.094;17.002;2022-08-11T05:31:17;12.27;;;8.43;;
323;SDS011;149;51.094;17.002;2022-08-11T05:34:10;8.33;;;5.90;;
323;SDS011;149;51.094;17.002;2022-08-11T05:37:06;9.00;;;6.57;;
323;SDS011;149;51.094;17.002;2022-08-11T05:39:52;7.40;;;5.90;;
323;SDS011;149;51.094;17.002;2022-08-11T05:42:48;8.93;;;5.40;;
323;SDS011;149;51.094;17.002;2022-08-11T05:45:35;7.87;;;6.97;;
323;SDS011;149;51.094;17.002;2022-08-11T05:48:32;9.77;;;6.20;;
323;SDS011;149;51.094;17.002;2022-08-11T05:51:19;4.40;;;3.90;;
323;SDS011;149;51.094;17.002;2022-08-11T05:54:19;11.67;;;6.90;;
323;SDS011;149;51.094;17.002;2022-08-11T05:57:06;9.63;;;8.03;;
323;SDS011;149;51.094;17.002;2022-08-11T05:59:33;28.57;;;19.40;;
323;SDS011;149;51.094;17.002;2022-08-11T06:02:01;6.73;;;5.83;;
323;SDS011;149;51.094;17.002;2022-08-11T06:04:31;6.27;;;5.70;;
323;SDS011;149;51.094;17.002;2022-08-11T06:07:02;6.90;;;5.17;;
323;SDS011;149;51.094;17.002;2022-08-11T06:09:35;7.13;;;4.73;;
323;SDS011;149;51.094;17.002;2022-08-11T06:12:29;6.50;;;4.90;;
323;SDS011;149;51.094;17.002;2022-08-11T06:15:02;6.53;;;4.90;;
323;SDS011;149;51.094;17.002;2022-08-11T06:17:32;8.40;;;5.03;;
323;SDS011;149;51.094;17.002;2022-08-11T06:22:33;6.13;;;4.93;;
323;SDS011;149;51.094;17.002;2022-08-11T06:25:01;4.53;;;4.03;;
323;SDS011;149;51.094;17.002;2022-08-11T06:27:30;4.93;;;4.33;;
323;SDS011;149;51.094;17.002;2022-08-11T06:30:00;5.17;;;4.20;;
323;SDS011;149;51.094;17.002;2022-08-11T06:32:42;6.87;;;3.30;;
323;SDS011;149;51.094;17.002;2022-08-11T06:38:09;3.10;;;2.30;;
323;SDS011;149;51.094;17.002;2022-08-11T06:40:58;2.37;;;2.17;;
323;SDS011;149;51.094;17.002;2022-08-11T06:46:28;2.47;;;2.27;;
323;SDS011;149;51.094;17.002;2022-08-11T06:48:56;3.23;;;2.10;;
323;SDS011;149;51.094;17.002;2022-08-11T06:51:27;4.03;;;2.23;;
323;SDS011;149;51.094;17.002;2022-08-11T06:53:59;3.23;;;1.90;;
323;SDS011;149;51.094;17.002;2022-08-11T06:56:34;7.90;;;2.60;;
323;SDS011;149;51.094;17.002;2022-08-11T06:59:42;7.57;;;2.20;;
323;SDS011;149;51.094;17.002;2022-08-11T07:02:45;2.40;;;2.20;;
323;SDS011;149;51.094;17.002;2022-08-11T07:05:20;4.17;;;2.43;;
323;SDS011;149;51.094;17.002;2022-08-11T07:14:40;5.17;;;3.00;;
323;SDS011;149;51.094;17.002;2022-08-11T07:17:33;4.83;;;2.57;;
323;SDS011;149;51.094;17.002;2022-08-11T07:20:15;6.37;;;2.10;;
323;SDS011;149;51.094;17.002;2022-08-11T07:23:03;2.90;;;2.00;;
323;SDS011;149;51.094;17.002;2022-08-11T07:25:52;2.80;;;1.90;;
323;SDS011;149;51.094;17.002;2022-08-11T07:28:41;2.40;;;2.20;;
323;SDS011;149;51.094;17.002;2022-08-11T07:31:23;2.73;;;2.43;;
323;SDS011;149;51.094;17.002;2022-08-11T07:34:01;3.90;;;2.43;;
323;SDS011;149;51.094;17.002;2022-08-11T07:36:32;2.57;;;2.23;;
323;SDS011;149;51.094;17.002;2022-08-11T07:39:10;6.83;;;2.60;;
323;SDS011;149;51.094;17.002;2022-08-11T07:41:43;3.53;;;2.97;;
323;SDS011;149;51.094;17.002;2022-08-11T07:44:12;2.27;;;2.07;;
323;SDS011;149;51.094;17.002;2022-08-11T07:46:43;2.07;;;1.97;;
323;SDS011;149;51.094;17.002;2022-08-11T07:49:35;2.43;;;2.27;;
323;SDS011;149;51.094;17.002;2022-08-11T07:52:24;3.43;;;2.00;;
323;SDS011;149;51.094;17.002;2022-08-11T07:55:02;2.30;;;2.10;;
323;SDS011;149;51.094;17.002;2022-08-11T07:57:35;2.87;;;2.30;;
323;SDS011;149;51.094;17.002;2022-08-11T08:00:44;5.20;;;2.50;;
323;SDS011;149;51.094;17.002;2022-08-11T08:03:48;2.37;;;2.17;;
323;SDS011;149;51.094;17.002;2022-08-11T08:06:34;1.90;;;1.80;;
323;SDS011;149;51.094;17.002;2022-08-11T08:09:21;3.10;;;2.47;;
323;SDS011;149;51.094;17.002;2022-08-11T08:12:09;3.43;;;2.60;;
323;SDS011;149;51.094;17.002;2022-08-11T08:14:56;2.47;;;2.27;;
323;SDS011;149;51.094;17.002;2022-08-11T08:17:42;7.83;;;2.53;;
323;SDS011;149;51.094;17.002;2022-08-11T08:20:41;6.13;;;2.33;;
323;SDS011;149;51.094;17.002;2022-08-11T08:23:25;2.50;;;2.30;;
323;SDS011;149;51.094;17.002;2022-08-11T08:26:01;2.20;;;2.00;;
323;SDS011;149;51.094;17.002;2022-08-11T08:28:52;2.13;;;1.83;;
323;SDS011;149;51.094;17.002;2022-08-11T08:31:41;2.33;;;2.13;;
323;SDS011;149;51.094;17.002;2022-08-11T08:34:10;3.37;;;2.50;;
323;SDS011;149;51.094;17.002;2022-08-11T08:36:38;2.07;;;1.90;;
323;SDS011;149;51.094;17.002;2022-08-11T08:39:18;1.93;;;1.80;;
323;SDS011;149;51.094;17.002;2022-08-11T08:41:55;1.67;;;1.57;;
323;SDS011;149;51.094;17.002;2022-08-11T08:44:24;1.90;;;1.70;;
323;SDS011;149;51.094;17.002;2022-08-11T08:47:05;5.33;;;2.20;;
323;SDS011;149;51.094;17.002;2022-08-11T08:49:35;1.83;;;1.70;;
323;SDS011;149;51.094;17.002;2022-08-11T08:52:29;3.87;;;2.33;;
323;SDS011;149;51.094;17.002;2022-08-11T08:55:09;2.43;;;1.90;;
323;SDS011;149;51.094;17.002;2022-08-11T08:57:44;1.90;;;1.80;;
323;SDS011;149;51.094;17.002;2022-08-11T09:00:13;1.87;;;1.60;;
323;SDS011;149;51.094;17.002;2022-08-11T09:02:48;1.87;;;1.77;;
323;SDS011;149;51.094;17.002;2022-08-11T09:05:18;1.60;;;1.50;;
323;SDS011;149;51.094;17.002;2022-08-11T09:07:45;2.13;;;1.93;;
323;SDS011;149;51.094;17.002;2022-08-11T09:10:17;3.40;;;2.03;;
323;SDS011;149;51.094;17.002;2022-08-11T09:12:45;1.70;;;1.60;;
323;SDS011;149;51.094;17.002;2022-08-11T09:15:14;1.90;;;1.70;;
323;SDS011;149;51.094;17.002;2022-08-11T09:17:46;1.83;;;1.73;;
323;SDS011;149;51.094;17.002;2022-08-11T09:22:53;2.07;;;1.97;;
323;SDS011;149;51.094;17.002;2022-08-11T09:26:01;2.57;;;1.70;;
323;SDS011;149;51.094;17.002;2022-08-11T09:28:56;3.97;;;1.47;;
323;SDS011;149;51.094;17.002;2022-08-11T09:31:24;2.70;;;1.83;;
323;SDS011;149;51.094;17.002;2022-08-11T09:33:53;2.20;;;1.80;;
323;SDS011;149;51.094;17.002;2022-08-11T09:36:20;1.87;;;1.77;;
323;SDS011;149;51.094;17.002;2022-08-11T09:39:07;2.00;;;1.90;;
323;SDS011;149;51.094;17.002;2022-08-11T09:41:56;1.77;;;1.67;;
323;SDS011;149;51.094;17.002;2022-08-11T09:44:30;2.03;;;1.43;;
323;SDS011;149;51.094;17.002;2022-08-11T09:47:27;2.43;;;1.93;;
323;SDS011;149;51.094;17.002;2022-08-11T09:49:57;1.50;;;1.40;;
323;SDS011;149;51.094;17.002;2022-08-11T09:52:27;1.93;;;1.83;;
323;SDS011;149;51.094;17.002;2022-08-11T09:54:56;2.90;;;1.70;;
323;SDS011;149;51.094;17.002;2022-08-11T09:57:23;1.53;;;1.43;;
323;SDS011;149;51.094;17.002;2022-08-11T10:00:27;2.10;;;1.90;;
323;SDS011;149;51.094;17.002;2022-08-11T10:03:07;1.43;;;1.33;;
323;SDS011;149;51.094;17.002;2022-08-11T10:05:38;1.57;;;1.47;;
323;SDS011;149;51.094;17.002;2022-08-11T10:08:33;2.17;;;1.50;;
323;SDS011;149;51.094;17.002;2022-08-11T10:11:04;2.23;;;2.03;;
323;SDS011;149;51.094;17.002;2022-08-11T10:13:34;2.03;;;1.83;;
323;SDS011;149;51.094;17.002;2022-08-11T10:16:46;2.57;;;1.57;;
323;SDS011;149;51.094;17.002;2022-08-11T10:19:14;1.80;;;1.70;;
323;SDS011;149;51.094;17.002;2022-08-11T10:21:46;1.67;;;1.57;;
323;SDS011;149;51.094;17.002;2022-08-11T10:24:38;2.30;;;1.63;;
323;SDS011;149;51.094;17.002;2022-08-11T10:27:26;1.40;;;1.30;;
323;SDS011;149;51.094;17.002;2022-08-11T10:30:13;1.63;;;1.40;;
323;SDS011;149;51.094;17.002;2022-08-11T10:33:01;6.80;;;1.47;;
323;SDS011;149;51.094;17.002;2022-08-11T10:36:03;1.60;;;1.50;;
323;SDS011;149;51.094;17.002;2022-08-11T10:38:42;1.37;;;1.27;;
323;SDS011;149;51.094;17.002;2022-08-11T10:41:12;1.70;;;1.60;;
323;SDS011;149;51.094;17.002;2022-08-11T10:43:58;5.07;;;1.87;;
323;SDS011;149;51.094;17.002;2022-08-11T10:46:30;2.10;;;1.73;;
323;SDS011;149;51.094;17.002;2022-08-11T10:49:15;1.60;;;1.50;;
323;SDS011;149;51.094;17.002;2022-08-11T10:51:44;3.00;;;1.43;;
323;SDS011;149;51.094;17.002;2022-08-11T10:54:31;1.47;;;1.23;;
323;SDS011;149;51.094;17.002;2022-08-11T10:57:18;2.20;;;1.60;;
323;SDS011;149;51.094;17.002;2022-08-11T11:00:05;2.50;;;1.23;;
323;SDS011;149;51.094;17.002;2022-08-11T11:02:34;1.40;;;1.27;;
323;SDS011;149;51.094;17.002;2022-08-11T11:11:09;1.77;;;1.50;;
323;SDS011;149;51.094;17.002;2022-08-11T11:13:46;2.70;;;1.93;;
323;SDS011;149;51.094;17.002;2022-08-11T11:16:35;2.10;;;1.70;;
323;SDS011;149;51.094;17.002;2022-08-11T11:19:17;1.10;;;1.00;;
323;SDS011;149;51.094;17.002;2022-08-11T11:21:50;4.20;;;1.70;;
323;SDS011;149;51.094;17.002;2022-08-11T11:24:37;1.50;;;1.40;;
323;SDS011;149;51.094;17.002;2022-08-11T11:27:20;1.20;;;1.10;;
323;SDS011;149;51.094;17.002;2022-08-11T11:30:03;1.40;;;1.30;;
323;SDS011;149;51.094;17.002;2022-08-11T11:35:35;1.77;;;1.67;;
323;SDS011;149;51.094;17.002;2022-08-11T11:38:24;1.93;;;1.10;;
323;SDS011;149;51.094;17.002;2022-08-11T11:40:51;3.13;;;1.30;;
323;SDS011;149;51.094;17.002;2022-08-11T11:43:38;1.40;;;1.30;;
323;SDS011;149;51.094;17.002;2022-08-11T11:46:05;1.80;;;1.70;;
323;SDS011;149;51.094;17.002;2022-08-11T11:48:34;1.97;;;1.30;;
323;SDS011;149;51.094;17.002;2022-08-11T11:51:02;1.40;;;1.30;;
323;SDS011;149;51.094;17.002;2022-08-11T11:53:29;6.00;;;1.77;;
323;SDS011;149;51.094;17.002;2022-08-11T11:55:57;2.20;;;1.50;;
323;SDS011;149;51.094;17.002;2022-08-11T11:58:25;2.03;;;1.37;;
323;SDS011;149;51.094;17.002;2022-08-11T12:01:12;1.20;;;1.10;;
323;SDS011;149;51.094;17.002;2022-08-11T12:03:42;1.40;;;1.30;;
323;SDS011;149;51.094;17.002;2022-08-11T12:06:12;1.90;;;1.80;;
323;SDS011;149;51.094;17.002;2022-08-11T12:08:39;1.90;;;1.30;;
323;SDS011;149;51.094;17.002;2022-08-11T12:11:09;1.43;;;1.23;;
323;SDS011;149;51.094;17.002;2022-08-11T12:13:57;1.57;;;1.20;;
323;SDS011;149;51.094;17.002;2022-08-11T12:16:26;2.30;;;1.17;;
323;SDS011;149;51.094;17.002;2022-08-11T12:19:05;6.13;;;1.67;;
323;SDS011;149;51.094;17.002;2022-08-11T12:21:35;4.60;;;1.63;;
323;SDS011;149;51.094;17.002;2022-08-11T12:24:26;2.60;;;1.93;;
323;SDS011;149;51.094;17.002;2022-08-11T12:27:13;2.10;;;1.90;;
323;SDS011;149;51.094;17.002;2022-08-11T12:29:55;10.10;;;2.97;;
323;SDS011;149;51.094;17.002;2022-08-11T12:32:26;2.50;;;1.20;;
323;SDS011;149;51.094;17.002;2022-08-11T12:34:55;4.00;;;2.03;;
323;SDS011;149;51.094;17.002;2022-08-11T12:37:26;1.53;;;1.43;;
323;SDS011;149;51.094;17.002;2022-08-11T12:40:02;1.67;;;1.57;;
323;SDS011;149;51.094;17.002;2022-08-11T12:43:16;1.83;;;1.73;;
323;SDS011;149;51.094;17.002;2022-08-11T12:49:11;3.27;;;1.60;;
323;SDS011;149;51.094;17.002;2022-08-11T12:52:01;1.90;;;1.80;;
323;SDS011;149;51.094;17.002;2022-08-11T12:57:40;2.03;;;1.40;;
323;SDS011;149;51.094;17.002;2022-08-11T13:00:28;1.57;;;1.37;;
323;SDS011;149;51.094;17.002;2022-08-11T13:03:17;1.57;;;1.10;;
323;SDS011;149;51.094;17.002;2022-08-11T13:06:03;2.00;;;1.90;;
323;SDS011;149;51.094;17.002;2022-08-11T13:08:32;1.23;;;1.03;;
323;SDS011;149;51.094;17.002;2022-08-11T13:11:02;2.07;;;1.60;;
323;SDS011;149;51.094;17.002;2022-08-11T13:13:48;1.80;;;1.40;;
323;SDS011;149;51.094;17.002;2022-08-11T13:16:33;3.50;;;1.77;;
323;SDS011;149;51.094;17.002;2022-08-11T13:19:21;1.80;;;1.30;;
323;SDS011;149;51.094;17.002;2022-08-11T13:21:49;1.90;;;1.80;;
323;SDS011;149;51.094;17.002;2022-08-11T13:24:18;2.90;;;1.97;;
323;SDS011;149;51.094;17.002;2022-08-11T13:26:47;3.43;;;1.50;;
323;SDS011;149;51.094;17.002;2022-08-11T13:29:37;1.70;;;1.60;;
323;SDS011;149;51.094;17.002;2022-08-11T13:32:07;3.40;;;1.50;;
323;SDS011;149;51.094;17.002;2022-08-11T13:34:36;1.13;;;1.07;;
323;SDS011;149;51.094;17.002;2022-08-11T13:37:08;2.80;;;1.33;;
323;SDS011;149;51.094;17.002;2022-08-11T13:39:38;1.50;;;1.40;;
323;SDS011;149;51.094;17.002;2022-08-11T13:42:13;4.80;;;1.43;;
323;SDS011;149;51.094;17.002;2022-08-11T13:44:41;1.10;;;1.00;;
323;SDS011;149;51.094;17.002;2022-08-11T13:47:10;1.50;;;1.23;;
323;SDS011;149;51.094;17.002;2022-08-11T13:49:39;1.30;;;1.20;;
323;SDS011;149;51.094;17.002;2022-08-11T13:52:09;1.40;;;1.30;;
323;SDS011;149;51.094;17.002;2022-08-11T13:54:41;1.30;;;1.20;;
323;SDS011;149;51.094;17.002;2022-08-11T13:57:10;3.90;;;1.80;;
323;SDS011;149;51.094;17.002;2022-08-11T14:00:00;1.20;;;1.10;;
323;SDS011;149;51.094;17.002;2022-08-11T14:02:50;1.30;;;1.20;;
323;SDS011;149;51.094;17.002;2022-08-11T14:05:21;0.83;;;0.83;;
323;SDS011;149;51.094;17.002;2022-08-11T14:07:58;2.50;;;1.07;;
323;SDS011;149;51.094;17.002;2022-08-11T14:10:28;2.63;;;1.20;;
323;SDS011;149;51.094;17.002;2022-08-11T14:12:59;1.80;;;1.30;;
323;SDS011;149;51.094;17.002;2022-08-11T14:15:50;5.77;;;1.10;;
323;SDS011;149;51.094;17.002;2022-08-11T14:18:24;1.60;;;1.47;;
323;SDS011;149;51.094;17.002;2022-08-11T14:20:55;1.80;;;1.47;;
323;SDS011;149;51.094;17.002;2022-08-11T14:23:45;2.10;;;1.50;;
323;SDS011;149;51.094;17.002;2022-08-11T14:26:16;1.47;;;1.23;;
323;SDS011;149;51.094;17.002;2022-08-11T14:29:10;1.13;;;1.03;;
323;SDS011;149;51.094;17.002;2022-08-11T14:31:41;1.03;;;0.90;;
323;SDS011;149;51.094;17.002;2022-08-11T14:34:11;3.00;;;1.23;;
323;SDS011;149;51.094;17.002;2022-08-11T14:36:51;1.40;;;1.30;;
323;SDS011;149;51.094;17.002;2022-08-11T14:39:26;1.80;;;1.17;;
323;SDS011;149;51.094;17.002;2022-08-11T14:41:57;3.03;;;1.37;;
323;SDS011;149;51.094;17.002;2022-08-11T14:44:45;1.33;;;1.23;;
323;SDS011;149;51.094;17.002;2022-08-11T14:47:34;1.20;;;1.10;;
323;SDS011;149;51.094;17.002;2022-08-11T14:50:03;1.47;;;1.37;;
323;SDS011;149;51.094;17.002;2022-08-11T14:52:37;1.37;;;1.27;;
323;SDS011;149;51.094;17.002;2022-08-11T14:55:15;2.60;;;1.57;;
323;SDS011;149;51.094;17.002;2022-08-11T14:58:03;1.53;;;1.20;;
323;SDS011;149;51.094;17.002;2022-08-11T15:00:34;1.17;;;1.07;;
323;SDS011;149;51.094;17.002;2022-08-11T15:03:02;1.90;;;1.77;;
323;SDS011;149;51.094;17.002;2022-08-11T15:05:42;3.13;;;1.80;;
323;SDS011;149;51.094;17.002;2022-08-11T15:08:23;1.20;;;1.10;;
323;SDS011;149;51.094;17.002;2022-08-11T15:11:23;2.07;;;1.80;;
323;SDS011;149;51.094;17.002;2022-08-11T15:14:13;2.53;;;1.30;;
323;SDS011;149;51.094;17.002;2022-08-11T15:17:00;2.43;;;1.60;;
323;SDS011;149;51.094;17.002;2022-08-11T15:19:35;5.77;;;1.40;;
323;SDS011;149;51.094;17.002;2022-08-11T15:22:25;1.70;;;1.17;;
323;SDS011;149;51.094;17.002;2022-08-11T15:25:12;2.97;;;1.80;;
323;SDS011;149;51.094;17.002;2022-08-11T15:27:39;2.73;;;1.43;;
323;SDS011;149;51.094;17.002;2022-08-11T15:30:26;1.70;;;1.60;;
323;SDS011;149;51.094;17.002;2022-08-11T15:33:13;1.80;;;1.70;;
323;SDS011;149;51.094;17.002;2022-08-11T15:36:01;1.77;;;1.40;;
323;SDS011;149;51.094;17.002;2022-08-11T15:38:55;1.50;;;1.40;;
323;SDS011;149;51.094;17.002;2022-08-11T15:41:27;1.40;;;1.30;;
323;SDS011;149;51.094;17.002;2022-08-11T15:44:25;1.33;;;1.20;;
323;SDS011;149;51.094;17.002;2022-08-11T15:47:32;2.73;;;1.90;;
323;SDS011;149;51.094;17.002;2022-08-11T15:50:08;3.90;;;2.07;;
323;SDS011;149;51.094;17.002;2022-08-11T15:52:51;1.40;;;1.30;;
323;SDS011;149;51.094;17.002;2022-08-11T15:55:24;1.37;;;1.03;;
323;SDS011;149;51.094;17.002;2022-08-11T15:57:54;5.20;;;1.90;;
323;SDS011;149;51.094;17.002;2022-08-11T16:00:41;1.70;;;1.60;;
323;SDS011;149;51.094;17.002;2022-08-11T16:03:38;2.90;;;2.70;;
323;SDS011;149;51.094;17.002;2022-08-11T16:06:34;1.33;;;1.23;;
323;SDS011;149;51.094;17.002;2022-08-11T16:09:16;2.20;;;1.67;;
323;SDS011;149;51.094;17.002;2022-08-11T16:11:45;1.10;;;1.00;;
323;SDS011;149;51.094;17.002;2022-08-11T16:14:14;2.03;;;1.70;;
323;SDS011;149;51.094;17.002;2022-08-11T16:17:03;1.80;;;1.60;;
323;SDS011;149;51.094;17.002;2022-08-11T16:19:33;1.63;;;1.40;;
323;SDS011;149;51.094;17.002;2022-08-11T16:22:05;2.20;;;1.27;;
323;SDS011;149;51.094;17.002;2022-08-11T16:24:37;2.40;;;1.30;;
323;SDS011;149;51.094;17.002;2022-08-11T16:27:38;1.93;;;1.67;;
323;SDS011;149;51.094;17.002;2022-08-11T16:30:09;1.90;;;1.10;;
323;SDS011;149;51.094;17.002;2022-08-11T16:32:37;1.43;;;1.20;;
323;SDS011;149;51.094;17.002;2022-08-11T16:35:08;1.87;;;1.70;;
323;SDS011;149;51.094;17.002;2022-08-11T16:38:08;1.90;;;1.40;;
323;SDS011;149;51.094;17.002;2022-08-11T16:40:56;2.50;;;1.30;;
323;SDS011;149;51.094;17.002;2022-08-11T16:43:27;1.50;;;1.40;;
323;SDS011;149;51.094;17.002;2022-08-11T16:46:15;1.50;;;1.40;;
323;SDS011;149;51.094;17.002;2022-08-11T16:49:04;5.07;;;3.13;;
323;SDS011;149;51.094;17.002;2022-08-11T16:51:33;1.43;;;1.33;;
323;SDS011;149;51.094;17.002;2022-08-11T16:54:00;1.40;;;1.30;;
323;SDS011;149;51.094;17.002;2022-08-11T16:56:33;2.03;;;1.80;;
323;SDS011;149;51.094;17.002;2022-08-11T16:59:09;1.83;;;1.70;;
323;SDS011;149;51.094;17.002;2022-08-11T17:01:45;1.40;;;1.20;;
323;SDS011;149;51.094;17.002;2022-08-11T17:04:21;2.53;;;1.60;;
323;SDS011;149;51.094;17.002;2022-08-11T17:07:12;3.90;;;1.63;;
323;SDS011;149;51.094;17.002;2022-08-11T17:10:10;1.37;;;1.27;;
323;SDS011;149;51.094;17.002;2022-08-11T17:13:28;1.40;;;1.27;;
323;SDS011;149;51.094;17.002;2022-08-11T17:16:10;1.30;;;1.20;;
323;SDS011;149;51.094;17.002;2022-08-11T17:18:41;1.07;;;0.97;;
323;SDS011;149;51.094;17.002;2022-08-11T17:21:28;1.47;;;1.37;;
323;SDS011;149;51.094;17.002;2022-08-11T17:24:05;6.40;;;1.80;;
323;SDS011;149;51.094;17.002;2022-08-11T17:26:36;1.30;;;1.10;;
323;SDS011;149;51.094;17.002;2022-08-11T17:31:55;2.13;;;1.40;;
323;SDS011;149;51.094;17.002;2022-08-11T17:34:42;1.97;;;1.80;;
323;SDS011;149;51.094;17.002;2022-08-11T17:37:30;1.17;;;1.07;;
323;SDS011;149;51.094;17.002;2022-08-11T17:40:02;1.87;;;1.50;;
323;SDS011;149;51.094;17.002;2022-08-11T17:42:33;1.33;;;1.23;;
323;SDS011;149;51.094;17.002;2022-08-11T17:45:20;1.93;;;1.57;;
323;SDS011;149;51.094;17.002;2022-08-11T17:48:30;1.60;;;1.50;;
323;SDS011;149;51.094;17.002;2022-08-11T17:51:02;2.70;;;1.60;;
323;SDS011;149;51.094;17.002;2022-08-11T17:53:41;1.40;;;1.30;;
323;SDS011;149;51.094;17.002;2022-08-11T17:56:48;5.80;;;1.40;;
323;SDS011;149;51.094;17.002;2022-08-11T17:59:46;3.80;;;1.47;;
323;SDS011;149;51.094;17.002;2022-08-11T18:02:20;1.57;;;1.47;;
323;SDS011;149;51.094;17.002;2022-08-11T18:05:12;2.60;;;1.50;;
323;SDS011;149;51.094;17.002;2022-08-11T18:07:43;1.50;;;1.40;;
323;SDS011;149;51.094;17.002;2022-08-11T18:10:32;1.40;;;1.30;;
323;SDS011;149;51.094;17.002;2022-08-11T18:13:20;2.83;;;1.50;;
323;SDS011;149;51.094;17.002;2022-08-11T18:16:07;2.27;;;2.13;;
323;SDS011;149;51.094;17.002;2022-08-11T18:18:53;4.97;;;1.40;;
323;SDS011;149;51.094;17.002;2022-08-11T18:21:44;6.10;;;1.20;;
323;SDS011;149;51.094;17.002;2022-08-11T18:24:46;2.30;;;2.10;;
323;SDS011;149;51.094;17.002;2022-08-11T18:27:34;2.00;;;1.40;;
323;SDS011;149;51.094;17.002;2022-08-11T18:30:22;4.97;;;1.60;;
323;SDS011;149;51.094;17.002;2022-08-11T18:33:09;1.53;;;1.30;;
323;SDS011;149;51.094;17.002;2022-08-11T18:36:21;10.40;;;2.00;;
323;SDS011;149;51.094;17.002;2022-08-11T18:39:11;1.50;;;1.40;;
323;SDS011;149;51.094;17.002;2022-08-11T18:42:03;2.83;;;2.63;;
323;SDS011;149;51.094;17.002;2022-08-11T18:44:56;2.47;;;1.67;;
323;SDS011;149;51.094;17.002;2022-08-11T18:47:49;2.20;;;1.53;;
323;SDS011;149;51.094;17.002;2022-08-11T18:50:36;1.67;;;1.20;;
323;SDS011;149;51.094;17.002;2022-08-11T18:53:49;2.40;;;1.43;;
323;SDS011;149;51.094;17.002;2022-08-11T18:56:38;2.40;;;1.87;;
323;SDS011;149;51.094;17.002;2022-08-11T18:59:30;3.20;;;1.77;;
323;SDS011;149;51.094;17.002;2022-08-11T19:02:18;5.47;;;1.50;;
323;SDS011;149;51.094;17.002;2022-08-11T19:05:15;3.53;;;1.40;;
323;SDS011;149;51.094;17.002;2022-08-11T19:08:22;1.70;;;1.40;;
323;SDS011;149;51.094;17.002;2022-08-11T19:11:12;1.67;;;1.00;;
323;SDS011;149;51.094;17.002;2022-08-11T19:14:10;3.33;;;1.47;;
323;SDS011;149;51.094;17.002;2022-08-11T19:16:59;1.20;;;1.10;;
323;SDS011;149;51.094;17.002;2022-08-11T19:20:10;1.53;;;1.43;;
323;SDS011;149;51.094;17.002;2022-08-11T19:23:04;1.47;;;1.37;;
323;SDS011;149;51.094;17.002;2022-08-11T19:25:53;1.90;;;1.70;;
323;SDS011;149;51.094;17.002;2022-08-11T19:28:41;1.33;;;1.20;;
323;SDS011;149;51.094;17.002;2022-08-11T19:31:29;1.73;;;1.50;;
323;SDS011;149;51.094;17.002;2022-08-11T19:34:18;2.10;;;1.20;;
323;SDS011;149;51.094;17.002;2022-08-11T19:37:10;3.00;;;1.77;;
323;SDS011;149;51.094;17.002;2022-08-11T19:40:04;3.30;;;2.30;;
323;SDS011;149;51.094;17.002;2022-08-11T19:42:52;2.03;;;1.40;;
323;SDS011;149;51.094;17.002;2022-08-11T19:45:52;1.30;;;1.20;;
323;SDS011;149;51.094;17.002;2022-08-11T19:48:42;3.13;;;1.67;;
323;SDS011;149;51.094;17.002;2022-08-11T19:51:30;2.23;;;1.80;;
323;SDS011;149;51.094;17.002;2022-08-11T19:54:22;1.70;;;1.53;;
323;SDS011;149;51.094;17.002;2022-08-11T19:57:12;1.40;;;1.30;;
323;SDS011;149;51.094;17.002;2022-08-11T20:00:12;3.80;;;1.47;;
323;SDS011;149;51.094;17.002;2022-08-11T20:03:00;1.40;;;1.23;;
323;SDS011;149;51.094;17.002;2022-08-11T20:05:49;1.40;;;1.30;;
323;SDS011;149;51.094;17.002;2022-08-11T20:08:36;2.87;;;1.40;;
323;SDS011;149;51.094;17.002;2022-08-11T20:11:29;1.43;;;1.33;;
323;SDS011;149;51.094;17.002;2022-08-11T20:14:17;1.77;;;1.67;;
323;SDS011;149;51.094;17.002;2022-08-11T20:17:08;3.13;;;1.70;;
323;SDS011;149;51.094;17.002;2022-08-11T20:19:54;1.30;;;1.20;;
323;SDS011;149;51.094;17.002;2022-08-11T20:22:44;2.57;;;2.37;;